Terminal Aerodrome Forecast
Issued by NWS

Home | Current Version | Previous Version | Text Only | Print | Product List | Glossary On
Versions: 1 2 3 4 5 6 7 8 9 10 11 12 13 14 15 16 17 18 19 20
000
FTUS42 KTBW 170900 AAC
TAFPIE
TAF AMD
KPIE 170934Z 1710/1806 27011KT 2SM RA BR SCT020 BKN030
     FM170945 29005KT P6SM VCSH FEW030 BKN050 BKN100
     FM171200 27006KT P6SM VCTS SCT030CB BKN060 BKN250
     FM171500 30007KT P6SM VCTS SCT020CB BKN030
     FM180000 VRB06KT P6SM VCSH SCT035 BKN080=

USA.gov is the U.S. government's official web portal to all federal, state and local government web resources and services.